Belize City, Belize

7:08 PM CST on September 18, 2014 (GMT -0600)
Philip S W Goldson International | Change Station
CLOSE
Current Station
Airport
Location: Belize,
Elevation: 16 ft
Nearby Weather Stations

Elev 16 ft 17.54 °N, 88.31 °W | Updated 8 minutes ago

Partly Cloudy
Partly Cloudy
81 °F
Feels Like 87 °F
N
4
Wind Variable Wind from ESE

Today
High -- | Low -- °F
--% Chance of Precip.
Yesterday
High -- | Low -- °F
Precip. -- in
5:41 AM 5:52 PM
Waning Crescent, 23% visible
Pressure 29.86 in
Visibility 6.2 miles
Clouds Few 1800 ft
Heat Index 87 °F
Dew Point 77 °F
Humidity 89%
Rainfall 0.00 in
Snow Depth Not available.
UV 0 out of 12
Pollen Not available.
Air Quality Not available.
Flu Activity Not available.
METAR MZBZ 190100Z 11003KT 9999 FEW018 27/25 A2986 Q1011 NOSIG

More Conditions Fewer Conditions

Pressure 29.86 in
Visibility 6.2 miles
Clouds Few 1800 ft
Heat Index 87 °F
Dew Point 77 °F
Humidity 89%
Rainfall 0.00 in
Snow Depth Not available.
UV 0 out of 12
Pollen Not available.
Air Quality Not available.
Flu Activity Not available.
METAR MZBZ 190100Z 11003KT 9999 FEW018 27/25 A2986 Q1011 NOSIG

More Conditions Fewer Conditions

10-Day Weather Forecast

Almanac

Astronomy

Sep. 18, 2014 Rise Set
Actual Time 5:41 AM CST 5:52 PM CST
Civil Twilight 5:19 AM CST 6:13 PM CST
Nautical Twilight 4:54 AM CST 6:39 PM CST
Astronomical Twilight 4:28 AM CST 7:04 PM CST
Moon 1:06 AM CST (9/18) 2:12 PM CST (9/18)
Length of Visible Light 12h 54m
Length of Day
12h 11m
Tomorrow will be 0m 58s shorter.
Waning Crescent, 23% of the Moon is Illuminated
Today
Waning Crescent
Sep 24
New
Oct 1
First Quarter
Oct 8
Full
Oct 15
Last Quarter

Today's Extremes

Country Highs Country Lows

Community

WunderPhotos

Upload Photos

1,754,509 photos uploaded!

Nearby

Snow Depth

Not available.

Earthquake Activity

City Distance Mag. Time & Date
No recent earthquake activity has been reported nearby.
Minimum magnitude displayed is 2.5.

Coastal Water Temperatures

Place Temperature
No Stations Reporting

Nearby Weather Stations